createdAt,value
2018-05-23T00:01:09.707Z,15.55
2018-05-23T00:03:38.519Z,15.55
2018-05-23T00:06:07.275Z,15.41
2018-05-23T00:08:36.165Z,15.45
2018-05-23T00:11:05.363Z,15.41
2018-05-23T00:13:34.968Z,15.40
2018-05-23T00:16:03.772Z,15.23
2018-05-23T00:18:32.645Z,15.38
2018-05-23T00:21:01.406Z,15.35
2018-05-23T00:23:30.324Z,15.34
2018-05-23T00:25:59.114Z,15.28
2018-05-23T00:28:28.282Z,15.25
2018-05-23T00:30:57.017Z,15.22
2018-05-23T00:33:27.459Z,15.26
2018-05-23T00:35:56.819Z,15.25
2018-05-23T00:38:25.684Z,15.30
2018-05-23T00:40:55.113Z,15.30
2018-05-23T00:43:23.919Z,15.30
2018-05-23T00:45:52.586Z,15.27
2018-05-23T00:48:21.343Z,15.29
2018-05-23T00:50:50.160Z,15.23
2018-05-23T00:53:19.027Z,15.32
2018-05-23T00:55:48.315Z,15.31
2018-05-23T00:58:17.135Z,15.28
2018-05-23T01:00:45.925Z,15.34
2018-05-23T01:03:14.766Z,15.37
2018-05-23T01:05:44.526Z,15.39
2018-05-23T01:08:13.310Z,15.37
2018-05-23T01:10:41.995Z,15.34
2018-05-23T01:13:10.783Z,15.34
2018-05-23T01:15:39.552Z,15.39
2018-05-23T01:18:08.357Z,15.39
2018-05-23T01:20:37.043Z,15.38
2018-05-23T01:23:05.780Z,15.41
2018-05-23T01:25:34.937Z,15.36
2018-05-23T01:28:03.713Z,15.43
2018-05-23T01:30:32.513Z,15.40
2018-05-23T01:33:01.286Z,15.59
2018-05-23T01:35:30.131Z,15.54
2018-05-23T01:37:58.968Z,15.51
2018-05-23T01:40:27.656Z,15.47
2018-05-23T01:42:56.387Z,15.48
2018-05-23T01:45:25.222Z,15.53
2018-05-23T01:47:54.017Z,15.56
2018-05-23T01:50:22.762Z,15.61
2018-05-23T01:52:51.599Z,15.63
2018-05-23T01:55:20.270Z,15.54
2018-05-23T01:57:49.059Z,15.57
2018-05-23T02:00:17.748Z,15.61
2018-05-23T02:02:46.530Z,15.58
2018-05-23T02:05:15.160Z,15.68
2018-05-23T02:07:44.003Z,15.72
2018-05-23T02:10:12.793Z,15.82
2018-05-23T02:12:41.665Z,15.85
2018-05-23T02:15:10.382Z,15.85
2018-05-23T02:17:39.051Z,15.90
2018-05-23T02:20:07.838Z,16.00
2018-05-23T02:22:36.629Z,16.01
2018-05-23T02:25:05.313Z,16.08
2018-05-23T02:27:34.098Z,16.18
2018-05-23T02:30:02.812Z,16.17
2018-05-23T02:32:31.671Z,16.09
2018-05-23T02:35:00.460Z,16.08
2018-05-23T02:37:29.158Z,16.10
2018-05-23T02:39:57.843Z,16.09
2018-05-23T02:42:26.619Z,15.99
2018-05-23T02:44:55.340Z,16.04
2018-05-23T02:47:24.193Z,16.03
2018-05-23T02:49:52.876Z,16.08
2018-05-23T02:52:21.565Z,16.12
2018-05-23T02:54:50.359Z,16.22
2018-05-23T02:57:19.241Z,16.31
2018-05-23T02:59:47.933Z,16.30
2018-05-23T03:02:16.612Z,16.40
2018-05-23T03:04:45.399Z,16.47
2018-05-23T03:07:14.186Z,16.44
2018-05-23T03:09:43.052Z,16.44
2018-05-23T03:12:11.863Z,16.60
2018-05-23T03:14:40.652Z,16.65
2018-05-23T03:17:09.438Z,16.59
2018-05-23T03:19:38.224Z,16.71
2018-05-23T03:22:07.082Z,16.68
2018-05-23T03:24:35.798Z,16.79
2018-05-23T03:27:04.492Z,16.85
2018-05-23T03:29:33.298Z,16.88
2018-05-23T03:32:02.058Z,16.95
2018-05-23T03:34:30.848Z,16.95
2018-05-23T03:36:59.635Z,17.05
2018-05-23T03:39:28.422Z,17.02
2018-05-23T03:41:57.120Z,17.00
2018-05-23T03:44:25.918Z,17.01
2018-05-23T03:46:54.686Z,16.96
2018-05-23T03:49:23.473Z,17.00
2018-05-23T03:51:52.183Z,17.17
2018-05-23T03:54:20.944Z,17.17
2018-05-23T03:56:49.654Z,17.27
2018-05-23T03:59:18.518Z,17.26
2018-05-23T04:01:59.156Z,17.28
2018-05-23T04:04:39.553Z,17.33
2018-05-23T04:07:21.131Z,17.40
2018-05-23T04:09:49.882Z,17.45
2018-05-23T04:12:18.702Z,17.46
2018-05-23T04:14:47.569Z,17.51
2018-05-23T04:17:17.306Z,17.41
2018-05-23T04:19:46.091Z,17.37
2018-05-23T04:22:14.881Z,17.51
2018-05-23T04:24:43.768Z,17.72
2018-05-23T04:27:12.466Z,17.74
2018-05-23T04:29:41.346Z,17.74
2018-05-23T04:32:10.129Z,17.72
2018-05-23T04:34:38.914Z,17.86
2018-05-23T04:37:07.702Z,17.99
2018-05-23T04:39:36.491Z,18.03
2018-05-23T04:42:05.278Z,18.00
2018-05-23T04:44:34.067Z,18.12
2018-05-23T04:47:02.812Z,18.15
2018-05-23T04:49:32.170Z,18.26
2018-05-23T04:52:00.940Z,18.27
2018-05-23T04:54:29.659Z,18.25
2018-05-23T04:56:59.233Z,18.45
2018-05-23T04:59:27.921Z,18.42
2018-05-23T05:01:56.601Z,18.48
2018-05-23T05:04:25.395Z,18.52
2018-05-23T05:06:54.094Z,18.35
2018-05-23T05:09:22.862Z,18.38
2018-05-23T05:11:51.547Z,18.43
2018-05-23T05:14:20.344Z,18.49
2018-05-23T05:16:49.031Z,18.41
2018-05-23T05:19:17.810Z,18.48
2018-05-23T05:21:46.495Z,18.59
2018-05-23T05:24:15.180Z,18.55
2018-05-23T05:26:43.974Z,18.56
2018-05-23T05:29:12.752Z,18.63
2018-05-23T05:31:41.519Z,18.63
2018-05-23T05:34:10.327Z,18.63
2018-05-23T05:36:39.100Z,18.54
2018-05-23T05:39:07.900Z,18.59
2018-05-23T05:41:36.593Z,18.66
2018-05-23T05:44:05.373Z,18.83
2018-05-23T05:46:34.674Z,18.89
2018-05-23T05:49:03.466Z,18.86
2018-05-23T05:51:32.246Z,19.32
2018-05-23T05:54:00.952Z,19.53
2018-05-23T05:56:29.723Z,19.62
2018-05-23T05:58:58.612Z,19.89
2018-05-23T06:01:27.370Z,20.24
2018-05-23T06:03:56.187Z,20.54
2018-05-23T06:06:24.951Z,21.08
2018-05-23T06:08:53.762Z,21.60
2018-05-23T06:11:22.550Z,21.88
2018-05-23T06:13:51.302Z,21.94
2018-05-23T06:16:20.122Z,22.12
2018-05-23T06:18:48.912Z,22.44
2018-05-23T06:21:17.602Z,22.69
2018-05-23T06:23:46.297Z,23.06
2018-05-23T06:26:15.654Z,23.05
2018-05-23T06:28:44.377Z,23.29
2018-05-23T06:31:13.155Z,24.26
2018-05-23T06:33:41.948Z,25.81
2018-05-23T06:36:10.731Z,26.45
2018-05-23T06:38:39.531Z,27.00
2018-05-23T06:41:08.212Z,27.37
2018-05-23T06:43:37.007Z,27.43
2018-05-23T06:46:06.224Z,28.34
2018-05-23T06:48:34.975Z,29.32
2018-05-23T06:51:03.770Z,30.22
2018-05-23T06:53:32.547Z,29.26
2018-05-23T06:56:01.336Z,29.20
2018-05-23T06:58:30.125Z,29.90
2018-05-23T07:00:58.912Z,31.32
2018-05-23T07:03:27.804Z,31.64
2018-05-23T07:05:56.636Z,31.35
2018-05-23T07:08:25.373Z,31.50
2018-05-23T07:10:54.118Z,31.09
2018-05-23T07:13:22.855Z,29.10
2018-05-23T07:15:51.633Z,28.45
2018-05-23T07:18:20.526Z,28.28
2018-05-23T07:20:49.311Z,27.67
2018-05-23T07:23:18.609Z,26.97
2018-05-23T07:25:47.371Z,26.40
2018-05-23T07:28:16.190Z,25.56
2018-05-23T07:30:44.970Z,26.48
2018-05-23T07:33:13.862Z,27.52
2018-05-23T07:35:42.657Z,27.93
2018-05-23T07:38:11.441Z,29.27
2018-05-23T07:40:40.226Z,29.87
2018-05-23T07:43:09.013Z,31.28
2018-05-23T07:45:37.803Z,30.62
2018-05-23T07:48:06.489Z,31.46
2018-05-23T07:50:35.874Z,31.58
2018-05-23T07:53:04.776Z,31.76
2018-05-23T07:55:33.461Z,31.47
2018-05-23T07:58:02.250Z,30.61
2018-05-23T08:00:30.936Z,29.74
2018-05-23T08:02:59.634Z,30.10
2018-05-23T08:05:28.317Z,30.65
2018-05-23T08:07:57.102Z,30.84
2018-05-23T08:10:25.882Z,31.49
2018-05-23T08:12:54.872Z,31.45
2018-05-23T08:15:23.659Z,32.02
2018-05-23T08:17:52.549Z,32.53
2018-05-23T08:20:21.336Z,31.76
2018-05-23T08:22:50.124Z,33.01
2018-05-23T08:25:18.836Z,32.99
2018-05-23T08:27:47.702Z,33.01
2018-05-23T08:30:16.487Z,32.40
2018-05-23T08:32:45.174Z,33.10
2018-05-23T08:35:13.855Z,30.90
2018-05-23T08:37:42.645Z,32.38
2018-05-23T08:40:11.433Z,32.12
2018-05-23T08:42:40.217Z,32.45
2018-05-23T08:45:08.913Z,32.14
2018-05-23T08:47:37.662Z,32.81
2018-05-23T08:50:06.377Z,31.28
2018-05-23T08:52:35.081Z,31.44
2018-05-23T08:55:03.848Z,32.37
2018-05-23T08:57:32.534Z,32.81
2018-05-23T09:00:01.298Z,33.75
2018-05-23T09:02:30.209Z,33.68
2018-05-23T09:04:59.054Z,33.67
2018-05-23T09:07:27.888Z,32.65
2018-05-23T09:09:56.674Z,33.00
2018-05-23T09:12:25.455Z,32.45
2018-05-23T09:14:54.249Z,33.81
2018-05-23T09:17:22.880Z,32.26
2018-05-23T09:19:51.624Z,31.22
2018-05-23T09:22:20.405Z,32.46
2018-05-23T09:24:49.225Z,33.31
2018-05-23T09:27:17.878Z,32.99
2018-05-23T09:29:46.665Z,34.28
2018-05-23T09:32:15.463Z,33.85
2018-05-23T09:34:44.343Z,33.50
2018-05-23T09:37:13.047Z,33.07
2018-05-23T09:39:41.712Z,32.93
2018-05-23T09:42:10.484Z,33.11
2018-05-23T09:44:39.290Z,33.12
2018-05-23T09:47:07.989Z,34.12
2018-05-23T09:49:36.773Z,34.58
2018-05-23T09:52:05.467Z,34.16
2018-05-23T09:54:34.148Z,33.14
2018-05-23T09:57:02.918Z,33.76
2018-05-23T09:59:31.750Z,32.97
2018-05-23T10:02:00.447Z,34.66
2018-05-23T10:04:29.137Z,34.34
2018-05-23T10:06:57.975Z,34.22
2018-05-23T10:09:26.665Z,34.69
2018-05-23T10:11:55.444Z,34.59
2018-05-23T10:14:24.156Z,34.89
2018-05-23T10:16:52.810Z,34.51
2018-05-23T10:19:21.595Z,33.50
2018-05-23T10:21:50.432Z,34.61
2018-05-23T10:24:19.171Z,34.77
2018-05-23T10:26:48.019Z,34.31
2018-05-23T10:29:16.645Z,34.73
2018-05-23T10:31:45.433Z,35.01
2018-05-23T10:34:14.193Z,34.38
2018-05-23T10:36:42.884Z,34.19
2018-05-23T10:39:11.687Z,35.67
2018-05-23T10:41:40.478Z,35.32
2018-05-23T10:44:09.266Z,34.69
2018-05-23T10:46:38.052Z,33.88
2018-05-23T10:49:06.841Z,33.44
2018-05-23T10:51:35.599Z,33.05
2018-05-23T10:54:04.415Z,33.57
2018-05-23T10:56:33.167Z,32.99
2018-05-23T10:59:02.063Z,34.02
2018-05-23T11:01:30.777Z,33.52
2018-05-23T11:03:59.564Z,34.32
2018-05-23T11:06:28.457Z,33.32
2018-05-23T11:08:57.164Z,34.29
2018-05-23T11:11:25.825Z,33.56
2018-05-23T11:13:54.530Z,34.50
2018-05-23T11:16:23.235Z,33.89
2018-05-23T11:18:52.774Z,32.84
2018-05-23T11:21:21.587Z,32.92
2018-05-23T11:23:50.384Z,33.46
2018-05-23T11:26:19.598Z,32.96
2018-05-23T11:28:48.466Z,31.74
2018-05-23T11:31:17.349Z,31.38
2018-05-23T11:33:47.160Z,30.20
2018-05-23T11:36:16.407Z,29.72
2018-05-23T11:38:45.483Z,29.45
2018-05-23T11:41:14.342Z,28.98
2018-05-23T11:43:43.234Z,28.41
2018-05-23T11:46:12.121Z,28.47
2018-05-23T11:48:40.911Z,28.11
2018-05-23T11:51:09.737Z,28.78
2018-05-23T11:53:38.661Z,29.34
2018-05-23T11:56:07.476Z,29.65
2018-05-23T11:58:37.084Z,29.27
2018-05-23T12:01:05.874Z,29.23
2018-05-23T12:03:34.882Z,28.99
2018-05-23T12:06:03.723Z,28.12
2018-05-23T12:08:32.411Z,27.74
2018-05-23T12:11:01.327Z,27.37
2018-05-23T12:13:30.045Z,27.50
2018-05-23T12:15:58.863Z,27.24
2018-05-23T12:18:27.697Z,27.36
2018-05-23T12:20:56.579Z,27.49
2018-05-23T12:23:25.225Z,27.44
2018-05-23T12:25:54.066Z,27.18
2018-05-23T12:28:23.147Z,27.20
2018-05-23T12:30:51.966Z,27.28
2018-05-23T12:33:20.724Z,27.33
2018-05-23T12:35:49.659Z,27.26
2018-05-23T12:38:18.397Z,27.43
2018-05-23T12:40:47.084Z,27.47
2018-05-23T12:43:15.856Z,27.44
2018-05-23T12:45:44.863Z,27.27
2018-05-23T12:48:13.548Z,27.07
2018-05-23T12:50:42.437Z,27.16
2018-05-23T12:53:11.226Z,27.32
2018-05-23T12:55:40.073Z,27.29
2018-05-23T12:58:08.830Z,27.25
2018-05-23T13:00:37.589Z,27.08
2018-05-23T13:03:06.479Z,27.02
2018-05-23T13:05:35.277Z,27.20
2018-05-23T13:08:04.154Z,27.23
2018-05-23T13:10:33.048Z,27.26
2018-05-23T13:13:01.935Z,27.29
2018-05-23T13:15:30.620Z,27.16
2018-05-23T13:17:59.751Z,27.04
2018-05-23T13:20:28.434Z,26.90
2018-05-23T13:22:57.288Z,26.79
2018-05-23T13:25:27.412Z,26.48
2018-05-23T13:27:56.199Z,26.63
2018-05-23T13:30:24.983Z,26.64
2018-05-23T13:32:54.216Z,26.49
2018-05-23T13:35:23.187Z,26.33
2018-05-23T13:37:52.064Z,26.20
2018-05-23T13:40:20.843Z,26.09
2018-05-23T13:42:49.638Z,25.89
2018-05-23T13:45:18.527Z,25.94
2018-05-23T13:47:47.638Z,25.82
2018-05-23T13:50:16.513Z,25.82
2018-05-23T13:52:45.353Z,25.77
2018-05-23T13:55:14.138Z,25.69
2018-05-23T13:57:42.805Z,25.54
2018-05-23T14:00:11.604Z,25.54
2018-05-23T14:02:40.441Z,25.56
2018-05-23T14:05:09.441Z,25.52
2018-05-23T14:07:38.125Z,25.50
2018-05-23T14:10:06.913Z,25.49
2018-05-23T14:12:35.622Z,25.55
2018-05-23T14:15:04.708Z,25.51
2018-05-23T14:17:33.616Z,25.37
2018-05-23T14:20:02.881Z,25.43
2018-05-23T14:22:31.775Z,25.46
2018-05-23T14:25:01.449Z,25.46
2018-05-23T14:27:30.391Z,25.51
2018-05-23T14:29:59.262Z,25.65
2018-05-23T14:32:28.057Z,25.86
2018-05-23T14:34:56.943Z,26.11
2018-05-23T14:37:25.627Z,26.42
2018-05-23T14:39:54.322Z,26.59
2018-05-23T14:42:23.197Z,26.42
2018-05-23T14:44:51.914Z,26.26
2018-05-23T14:47:21.433Z,26.28
2018-05-23T14:49:50.382Z,26.20
2018-05-23T14:52:19.377Z,26.16
2018-05-23T14:54:48.159Z,26.19
2018-05-23T14:57:17.054Z,26.02
2018-05-23T14:59:46.603Z,25.93
2018-05-23T15:02:15.543Z,25.98
2018-05-23T15:04:44.331Z,25.79
2018-05-23T15:07:13.129Z,25.96
2018-05-23T15:09:41.914Z,25.98
2018-05-23T15:12:10.799Z,25.82
2018-05-23T15:14:39.488Z,25.93
2018-05-23T15:17:08.264Z,25.97
2018-05-23T15:19:37.296Z,25.88
2018-05-23T15:22:06.045Z,25.93
2018-05-23T15:24:35.052Z,25.89
2018-05-23T15:27:03.828Z,25.87
2018-05-23T15:29:32.665Z,25.88
2018-05-23T15:32:01.361Z,25.94
2018-05-23T15:34:30.696Z,25.96
2018-05-23T15:36:59.361Z,25.79
2018-05-23T15:39:28.408Z,25.70
2018-05-23T15:41:57.269Z,25.63
2018-05-23T15:44:26.182Z,25.60
2018-05-23T15:46:54.946Z,25.60
2018-05-23T15:49:23.739Z,25.54
2018-05-23T15:51:52.420Z,25.47
2018-05-23T15:54:21.182Z,25.51
2018-05-23T15:56:50.479Z,25.40
2018-05-23T16:01:55.456Z,25.16
2018-05-23T16:04:24.204Z,25.16
2018-05-23T16:06:52.919Z,25.06
2018-05-23T16:09:22.053Z,25.09
2018-05-23T16:11:50.911Z,25.02
2018-05-23T16:14:19.700Z,25.09
2018-05-23T16:16:49.511Z,25.11
2018-05-23T16:19:18.210Z,25.10
2018-05-23T16:21:47.021Z,25.16
2018-05-23T16:24:15.921Z,25.09
2018-05-23T16:26:44.674Z,24.90
2018-05-23T16:29:14.674Z,24.83
2018-05-23T16:31:43.461Z,24.69
2018-05-23T16:34:12.185Z,24.61
2018-05-23T16:36:41.139Z,24.57
2018-05-23T16:39:09.928Z,24.54
2018-05-23T16:41:39.840Z,24.50
2018-05-23T16:44:08.736Z,24.48
2018-05-23T16:46:37.518Z,24.48
2018-05-23T16:49:06.459Z,24.39
2018-05-23T16:51:35.194Z,24.46
2018-05-23T16:54:03.982Z,24.37
2018-05-23T16:56:32.773Z,24.36
2018-05-23T16:59:01.565Z,24.36
2018-05-23T17:01:30.352Z,24.33
2018-05-23T17:03:59.608Z,24.28
2018-05-23T17:06:28.793Z,24.28
2018-05-23T17:08:59.225Z,24.36
2018-05-23T17:11:28.313Z,24.33
2018-05-23T17:13:57.047Z,24.13
2018-05-23T17:16:25.938Z,23.99
2018-05-23T17:18:54.737Z,23.93
2018-05-23T17:21:25.520Z,23.84
2018-05-23T17:23:54.251Z,23.71
2018-05-23T17:26:23.236Z,23.56
2018-05-23T17:28:52.130Z,23.59
2018-05-23T17:31:20.928Z,23.45
2018-05-23T17:33:49.702Z,23.43
2018-05-23T17:36:19.103Z,23.43
2018-05-23T17:38:47.793Z,23.34
2018-05-23T17:41:16.573Z,23.30
2018-05-23T17:43:45.309Z,23.26
2018-05-23T17:46:13.947Z,23.25
2018-05-23T17:48:42.693Z,23.18
2018-05-23T17:51:11.315Z,23.03
2018-05-23T17:53:40.215Z,23.10
2018-05-23T17:56:09.090Z,22.85
2018-05-23T17:58:37.860Z,21.24
2018-05-23T18:01:06.879Z,20.15
2018-05-23T18:03:35.564Z,19.29
2018-05-23T18:06:04.437Z,18.79
2018-05-23T18:08:33.145Z,18.54
2018-05-23T18:11:02.026Z,18.33
2018-05-23T18:13:30.885Z,18.19
2018-05-23T18:15:59.705Z,17.90
2018-05-23T18:18:28.492Z,17.68
2018-05-23T18:20:57.274Z,17.49
2018-05-23T18:23:26.728Z,17.56
2018-05-23T18:25:55.467Z,17.62
2018-05-23T18:28:24.147Z,17.68
2018-05-23T18:30:52.839Z,17.77
2018-05-23T18:33:21.631Z,17.86
2018-05-23T18:35:50.306Z,17.82
2018-05-23T18:38:19.113Z,17.85
2018-05-23T18:40:47.945Z,17.86
2018-05-23T18:43:16.851Z,17.84
2018-05-23T18:45:45.563Z,17.72
2018-05-23T18:48:14.462Z,17.61
2018-05-23T18:50:45.341Z,17.58
2018-05-23T18:53:14.181Z,17.53
2018-05-23T18:55:43.068Z,17.50
2018-05-23T18:58:11.844Z,17.57
2018-05-23T19:00:40.637Z,17.50
2018-05-23T19:03:09.374Z,17.41
2018-05-23T19:05:38.214Z,17.43
2018-05-23T19:08:07.431Z,17.45
2018-05-23T19:10:36.308Z,17.36
2018-05-23T19:13:06.010Z,17.29
2018-05-23T19:15:34.902Z,17.35
2018-05-23T19:18:03.795Z,17.44
2018-05-23T19:20:32.562Z,17.55
2018-05-23T19:23:01.262Z,17.60
2018-05-23T19:25:30.052Z,17.59
2018-05-23T19:27:58.986Z,17.63
2018-05-23T19:30:27.832Z,17.61
2018-05-23T19:32:56.671Z,17.61
2018-05-23T19:35:25.609Z,17.61
2018-05-23T19:37:54.305Z,17.60
2018-05-23T19:40:23.288Z,17.67
2018-05-23T19:42:52.083Z,17.57
2018-05-23T19:45:20.968Z,17.56
2018-05-23T19:47:49.726Z,17.63
2018-05-23T19:50:18.646Z,17.59
2018-05-23T19:52:47.750Z,17.53
2018-05-23T19:55:16.424Z,17.41
2018-05-23T19:57:45.105Z,17.26
2018-05-23T20:00:14.007Z,17.27
2018-05-23T20:02:42.786Z,17.21
2018-05-23T20:05:11.571Z,17.22
2018-05-23T20:07:40.568Z,17.07
2018-05-23T20:10:09.476Z,16.94
2018-05-23T20:12:39.451Z,16.82
2018-05-23T20:15:08.731Z,16.75
2018-05-23T20:17:37.659Z,16.67
2018-05-23T20:20:06.498Z,16.64
2018-05-23T20:22:35.236Z,16.59
2018-05-23T20:25:04.328Z,16.63
2018-05-23T20:27:33.036Z,16.61
2018-05-23T20:30:01.806Z,16.62
2018-05-23T20:32:30.829Z,16.71
2018-05-23T20:34:59.847Z,16.71
2018-05-23T20:37:28.781Z,16.80
2018-05-23T20:39:57.556Z,16.86
2018-05-23T20:42:26.426Z,16.88
2018-05-23T20:44:55.139Z,16.90
2018-05-23T20:47:23.928Z,16.90
2018-05-23T20:49:52.580Z,16.89
2018-05-23T20:52:21.915Z,16.90
2018-05-23T20:54:50.596Z,16.86
2018-05-23T20:57:19.284Z,16.81
2018-05-23T20:59:48.071Z,16.79
2018-05-23T21:02:17.471Z,16.73
2018-05-23T21:04:47.180Z,16.67
2018-05-23T21:07:15.971Z,16.63
2018-05-23T21:09:44.708Z,16.60
2018-05-23T21:12:13.547Z,16.62
2018-05-23T21:14:42.434Z,16.60
2018-05-23T21:17:12.015Z,16.60
2018-05-23T21:19:40.932Z,16.60
2018-05-23T21:22:09.794Z,16.54
2018-05-23T21:24:38.628Z,16.57
2018-05-23T21:27:07.327Z,16.61
2018-05-23T21:29:36.282Z,16.56
2018-05-23T21:32:04.961Z,16.56
2018-05-23T21:34:34.731Z,16.53
2018-05-23T21:37:03.464Z,16.57
2018-05-23T21:39:32.254Z,16.56
2018-05-23T21:42:01.576Z,16.58
2018-05-23T21:44:30.440Z,16.62
2018-05-23T21:46:59.186Z,16.59
2018-05-23T21:49:30.132Z,16.61
2018-05-23T21:51:58.850Z,16.68
2018-05-23T21:54:27.646Z,16.67
2018-05-23T21:56:56.632Z,16.69
2018-05-23T21:59:25.431Z,16.76
2018-05-23T22:01:54.412Z,16.78
2018-05-23T22:04:23.100Z,16.77
2018-05-23T22:06:51.784Z,16.75
2018-05-23T22:09:20.365Z,16.69
2018-05-23T22:11:49.972Z,16.68
2018-05-23T22:14:18.759Z,16.61
2018-05-23T22:16:47.545Z,16.76
2018-05-23T22:19:16.135Z,16.83
2018-05-23T22:21:44.914Z,16.84
2018-05-23T22:24:13.804Z,16.79
2018-05-23T22:26:42.498Z,16.83
2018-05-23T22:29:11.669Z,16.84
2018-05-23T22:31:40.360Z,16.86
2018-05-23T22:34:09.161Z,16.92
2018-05-23T22:36:37.864Z,16.94
2018-05-23T22:39:06.531Z,16.91
2018-05-23T22:41:35.219Z,16.97
2018-05-23T22:44:04.247Z,16.95
2018-05-23T22:46:33.096Z,16.99
2018-05-23T22:49:01.901Z,17.01
2018-05-23T22:51:30.567Z,17.00
2018-05-23T22:53:59.357Z,16.96
2018-05-23T22:56:28.150Z,16.99
2018-05-23T22:58:57.038Z,17.03
2018-05-23T23:01:25.729Z,17.02
2018-05-23T23:03:54.459Z,17.05
2018-05-23T23:06:23.085Z,17.07
2018-05-23T23:08:52.048Z,17.09
2018-05-23T23:11:20.763Z,17.14
2018-05-23T23:13:49.451Z,17.22
2018-05-23T23:16:18.248Z,17.24
2018-05-23T23:18:47.234Z,17.35
2018-05-23T23:21:16.016Z,17.33
2018-05-23T23:23:45.011Z,17.42
2018-05-23T23:26:13.860Z,17.48
2018-05-23T23:28:42.788Z,17.44
2018-05-23T23:31:12.295Z,17.46
2018-05-23T23:33:40.885Z,17.49
2018-05-23T23:36:09.481Z,17.55
2018-05-23T23:38:38.147Z,17.46
2018-05-23T23:41:06.933Z,17.45
2018-05-23T23:43:35.825Z,17.50
2018-05-23T23:46:19.593Z,17.32
2018-05-23T23:48:48.325Z,17.30
2018-05-23T23:51:17.983Z,17.40
2018-05-23T23:53:46.773Z,17.33
2018-05-23T23:56:15.501Z,17.20
2018-05-23T23:58:44.193Z,17.18
